Happy Puppy — CFN5446 — position and weather

sailwx.info

Track history (hours):
 
Tides and Currents Weather Stations Pressure Air Temp Water Temp Dewpoint Dewpoint Depression Visibility Wind Speed Wind Dir Waves Ship Positions

Happy Puppy

Last reported at 2014-Oct-11 15:10 UTC. Time now 2014-Oct-24 07:49 UTC.
Position N 44°12' W 076°39'.
Warning: this ship's position is 12 days out of date.

Length 11 m.

Type: Pleasure craft. MMSI: 316018857.

Date/timePositionNaut miles runAvg speedWind from/ knotsBaromVisibWave heightAir tempDewpointWater temp
2014-Oct-11 15:10N 44°12' W 076°39'  
2014-Oct-05 15:32N 44°14' W 076°36'0 0.0
2014-Oct-05 14:32N 44°14' W 076°36'0 0.0
2014-Oct-05 13:26N 44°14' W 076°36'0 0.0
2014-Oct-05 12:32N 44°14' W 076°36'0 0.0
2014-Oct-05 11:32N 44°14' W 076°36'0 0.0
2014-Oct-05 10:32N 44°14' W 076°36'0 0.0
2014-Oct-05 09:32N 44°14' W 076°36'0 0.0
2014-Oct-05 08:29N 44°14' W 076°36'0 0.0
2014-Oct-05 07:32N 44°14' W 076°36'0 0.0
2014-Oct-05 06:32N 44°14' W 076°36'0 0.0
2014-Oct-05 05:32N 44°14' W 076°36'0 0.0
2014-Oct-05 04:32N 44°14' W 076°36'0 0.0
2014-Oct-05 03:32N 44°14' W 076°36'0 0.0
2014-Oct-05 02:32N 44°14' W 076°36'0 0.0
2014-Oct-05 01:32N 44°14' W 076°36'0 0.0
2014-Oct-05 00:32N 44°14' W 076°36'0 0.0
2014-Oct-04 23:23N 44°14' W 076°36'0 0.0
2014-Oct-04 22:32N 44°14' W 076°36'0 0.0
2014-Oct-04 21:32N 44°14' W 076°36'0 0.0
2014-Oct-04 20:33N 44°14' W 076°36'4 3.8
2014-Oct-04 19:33N 44°13' W 076°32'2 1.9
2014-Oct-04 18:32N 44°13' W 076°29'1 1.3
2014-Oct-04 17:33N 44°13' W 076°28'2 1.7
2014-Oct-04 16:33N 44°13' W 076°30'1 0.8
2014-Oct-04 15:33N 44°12' W 076°29'2 2.0
2014-Oct-04 14:33N 44°12' W 076°32'4 3.4
2014-Oct-04 13:29N 44°14' W 076°36'0 0.0
2014-Oct-04 12:31N 44°14' W 076°36'  
Track history (hours):
 
Tides and Currents Weather Stations Pressure Air Temp Water Temp Dewpoint Dewpoint Depression Visibility Wind Speed Wind Dir Waves Ship Positions

Happy Puppy

Last reported at 2014-Oct-11 15:10 UTC. Time now 2014-Oct-24 07:49 UTC.
Position N 44°12' W 076°39'.
Warning: this ship's position is 12 days out of date.

Length 11 m.

Type: Pleasure craft. MMSI: 316018857.

Date/timePositionNaut miles runAvg speedWind from/ knotsBaromVisibWave heightAir tempDewpointWater temp
2014-Oct-11 15:10N 44°12' W 076°39'  
2014-Oct-05 15:32N 44°14' W 076°36'0 0.0
2014-Oct-05 14:32N 44°14' W 076°36'0 0.0
2014-Oct-05 13:26N 44°14' W 076°36'0 0.0
2014-Oct-05 12:32N 44°14' W 076°36'0 0.0
2014-Oct-05 11:32N 44°14' W 076°36'0 0.0
2014-Oct-05 10:32N 44°14' W 076°36'0 0.0
2014-Oct-05 09:32N 44°14' W 076°36'0 0.0
2014-Oct-05 08:29N 44°14' W 076°36'0 0.0
2014-Oct-05 07:32N 44°14' W 076°36'0 0.0
2014-Oct-05 06:32N 44°14' W 076°36'0 0.0
2014-Oct-05 05:32N 44°14' W 076°36'0 0.0
2014-Oct-05 04:32N 44°14' W 076°36'0 0.0
2014-Oct-05 03:32N 44°14' W 076°36'0 0.0
2014-Oct-05 02:32N 44°14' W 076°36'0 0.0
2014-Oct-05 01:32N 44°14' W 076°36'0 0.0
2014-Oct-05 00:32N 44°14' W 076°36'0 0.0
2014-Oct-04 23:23N 44°14' W 076°36'0 0.0
2014-Oct-04 22:32N 44°14' W 076°36'0 0.0
2014-Oct-04 21:32N 44°14' W 076°36'0 0.0
2014-Oct-04 20:33N 44°14' W 076°36'4 3.8
2014-Oct-04 19:33N 44°13' W 076°32'2 1.9
2014-Oct-04 18:32N 44°13' W 076°29'1 1.3
2014-Oct-04 17:33N 44°13' W 076°28'2 1.7
2014-Oct-04 16:33N 44°13' W 076°30'1 0.8
2014-Oct-04 15:33N 44°12' W 076°29'2 2.0
2014-Oct-04 14:33N 44°12' W 076°32'4 3.4
2014-Oct-04 13:29N 44°14' W 076°36'0 0.0
2014-Oct-04 12:31N 44°14' W 076°36'  

Dump ship's entire track history